createdAt,value
2017-12-04T00:01:08.911Z,6.80
2017-12-04T00:03:36.438Z,10.10
2017-12-04T00:06:04.761Z,6.70
2017-12-04T00:08:32.295Z,7.00
2017-12-04T00:11:00.592Z,7.30
2017-12-04T00:13:28.118Z,6.83
2017-12-04T00:15:56.407Z,5.97
2017-12-04T00:18:24.739Z,7.77
2017-12-04T00:20:52.373Z,6.33
2017-12-04T00:23:20.668Z,6.30
2017-12-04T00:25:48.190Z,6.20
2017-12-04T00:28:15.713Z,5.90
2017-12-04T00:30:43.241Z,6.07
2017-12-04T00:33:10.771Z,5.30
2017-12-04T00:35:38.332Z,6.07
2017-12-04T00:38:05.871Z,7.60
2017-12-04T00:40:52.147Z,6.80
2017-12-04T00:43:19.679Z,5.60
2017-12-04T00:45:47.208Z,6.00
2017-12-04T00:48:14.740Z,6.90
2017-12-04T00:50:43.044Z,5.40
2017-12-04T00:53:10.575Z,7.03
2017-12-04T00:55:38.095Z,5.73
2017-12-04T00:58:05.654Z,6.23
2017-12-04T01:00:33.183Z,5.50
2017-12-04T01:03:00.723Z,5.50
2017-12-04T01:05:29.038Z,5.60
2017-12-04T01:07:56.571Z,5.67
2017-12-04T01:10:24.887Z,6.43
2017-12-04T01:12:52.422Z,6.43
2017-12-04T01:15:19.953Z,5.13
2017-12-04T01:17:48.242Z,6.10
2017-12-04T01:20:16.526Z,5.27
2017-12-04T01:22:44.083Z,5.90
2017-12-04T01:25:12.374Z,5.10
2017-12-04T01:27:39.901Z,5.30
2017-12-04T01:30:08.203Z,5.50
2017-12-04T01:32:35.727Z,5.17
2017-12-04T01:35:03.279Z,4.73
2017-12-04T01:37:30.829Z,5.20
2017-12-04T01:39:58.351Z,6.73
2017-12-04T01:42:25.884Z,5.03
2017-12-04T01:44:54.182Z,5.97
2017-12-04T01:47:21.743Z,5.00
2017-12-04T01:49:49.275Z,6.03
2017-12-04T01:52:17.587Z,5.10
2017-12-04T01:54:45.111Z,5.47
2017-12-04T01:57:13.412Z,8.40
2017-12-04T01:59:40.970Z,4.70
2017-12-04T02:02:08.508Z,4.37
2017-12-04T02:04:36.038Z,6.13
2017-12-04T02:07:03.560Z,4.13
2017-12-04T02:09:31.110Z,7.17
2017-12-04T02:11:58.660Z,4.53
2017-12-04T02:14:26.951Z,4.43
2017-12-04T02:16:54.479Z,5.53
2017-12-04T02:19:22.003Z,5.40
2017-12-04T02:21:49.523Z,4.70
2017-12-04T02:24:17.106Z,5.17
2017-12-04T02:26:44.642Z,3.90
2017-12-04T02:29:12.167Z,6.10
2017-12-04T02:31:39.695Z,4.50
2017-12-04T02:34:07.228Z,5.90
2017-12-04T02:36:34.796Z,4.57
2017-12-04T02:39:02.319Z,5.93
2017-12-04T02:41:30.639Z,4.70
2017-12-04T02:43:58.175Z,4.87
2017-12-04T02:46:25.699Z,4.70
2017-12-04T02:48:53.316Z,5.30
2017-12-04T02:51:21.579Z,4.63
2017-12-04T02:53:49.107Z,4.07
2017-12-04T02:56:17.420Z,4.53
2017-12-04T02:58:44.959Z,4.33
2017-12-04T03:01:13.250Z,5.40
2017-12-04T03:03:40.779Z,4.13
2017-12-04T03:06:09.106Z,4.33
2017-12-04T03:08:36.650Z,4.97
2017-12-04T03:11:04.177Z,5.40
2017-12-04T03:13:31.714Z,4.43
2017-12-04T03:15:59.250Z,4.23
2017-12-04T03:18:26.800Z,4.00
2017-12-04T03:20:54.334Z,4.93
2017-12-04T03:23:22.626Z,4.83
2017-12-04T03:25:50.150Z,4.70
2017-12-04T03:28:17.679Z,4.30
2017-12-04T03:30:45.203Z,4.07
2017-12-04T03:33:12.758Z,3.93
2017-12-04T03:35:40.309Z,4.70
2017-12-04T03:38:07.882Z,4.00
2017-12-04T03:40:35.444Z,4.00
2017-12-04T03:43:02.970Z,5.33
2017-12-04T03:45:30.515Z,4.10
2017-12-04T03:47:58.073Z,5.70
2017-12-04T03:50:25.600Z,4.90
2017-12-04T03:52:53.126Z,4.90
2017-12-04T03:55:21.426Z,4.17
2017-12-04T03:57:48.967Z,3.70
2017-12-04T04:00:20.558Z,3.87
2017-12-04T04:02:48.095Z,4.57
2017-12-04T04:05:15.627Z,3.97
2017-12-04T04:07:43.917Z,3.13
2017-12-04T04:10:11.475Z,3.90
2017-12-04T04:12:39.024Z,3.70
2017-12-04T04:15:07.324Z,4.20
2017-12-04T04:17:34.856Z,3.47
2017-12-04T04:20:02.378Z,3.87
2017-12-04T04:22:29.904Z,3.83
2017-12-04T04:24:57.430Z,3.73
2017-12-04T04:27:24.964Z,3.87
2017-12-04T04:29:52.534Z,3.63
2017-12-04T04:32:20.093Z,2.97
2017-12-04T04:34:47.608Z,3.70
2017-12-04T04:37:34.191Z,4.23
2017-12-04T04:40:02.484Z,4.30
2017-12-04T04:42:30.039Z,3.37
2017-12-04T04:44:57.576Z,3.57
2017-12-04T04:47:25.112Z,4.10
2017-12-04T04:49:52.640Z,3.30
2017-12-04T04:52:20.171Z,3.20
2017-12-04T04:54:48.502Z,3.90
2017-12-04T04:57:16.040Z,6.53
2017-12-04T04:59:43.669Z,8.20
2017-12-04T05:02:11.963Z,9.23
2017-12-04T05:04:39.488Z,16.23
2017-12-04T05:07:07.012Z,9.20
2017-12-04T05:09:34.537Z,5.30
2017-12-04T05:12:02.091Z,8.43
2017-12-04T05:14:29.622Z,9.83
2017-12-04T05:16:57.151Z,6.07
2017-12-04T05:19:24.712Z,6.60
2017-12-04T05:21:52.252Z,5.60
2017-12-04T05:24:19.874Z,4.40
2017-12-04T05:26:48.179Z,5.20
2017-12-04T05:29:15.715Z,4.40
2017-12-04T05:31:44.007Z,4.83
2017-12-04T05:34:11.556Z,3.73
2017-12-04T05:36:39.886Z,3.73
2017-12-04T05:39:07.433Z,4.80
2017-12-04T05:41:35.004Z,5.10
2017-12-04T05:44:02.531Z,5.50
2017-12-04T05:46:30.060Z,5.37
2017-12-04T05:48:58.390Z,5.50
2017-12-04T05:51:26.288Z,7.20
2017-12-04T05:53:54.615Z,5.17
2017-12-04T05:56:22.160Z,6.17
2017-12-04T05:58:49.701Z,9.57
2017-12-04T06:01:17.259Z,5.83
2017-12-04T06:03:44.814Z,6.70
2017-12-04T06:06:12.348Z,7.73
2017-12-04T06:08:39.883Z,7.03
2017-12-04T06:11:07.418Z,9.70
2017-12-04T06:13:35.716Z,10.10
2017-12-04T06:16:03.242Z,13.07
2017-12-04T06:18:31.562Z,5.90
2017-12-04T06:20:59.096Z,5.73
2017-12-04T06:23:27.399Z,7.13
2017-12-04T06:25:54.934Z,7.90
2017-12-04T06:28:22.474Z,5.90
2017-12-04T06:30:50.824Z,12.13
2017-12-04T06:33:18.361Z,7.80
2017-12-04T06:35:45.897Z,10.87
2017-12-04T06:38:13.436Z,9.80
2017-12-04T06:40:41.738Z,8.10
2017-12-04T06:43:09.317Z,6.20
2017-12-04T06:45:36.861Z,4.50
2017-12-04T06:48:04.421Z,11.87
2017-12-04T06:50:31.960Z,5.37
2017-12-04T06:53:00.266Z,9.40
2017-12-04T06:55:27.841Z,8.00
2017-12-04T06:57:55.409Z,6.80
2017-12-04T07:00:22.954Z,4.77
2017-12-04T07:02:50.506Z,7.83
2017-12-04T07:05:18.054Z,8.20
2017-12-04T07:07:45.627Z,7.10
2017-12-04T07:10:13.172Z,5.40
2017-12-04T07:12:40.715Z,4.27
2017-12-04T07:15:09.062Z,8.37
2017-12-04T07:17:36.577Z,5.10
2017-12-04T07:20:04.141Z,5.53
2017-12-04T07:22:31.681Z,6.67
2017-12-04T07:24:59.987Z,3.70
2017-12-04T07:27:27.520Z,7.77
2017-12-04T07:29:55.817Z,3.90
2017-12-04T07:32:23.383Z,9.90
2017-12-04T07:34:50.931Z,5.10
2017-12-04T07:37:18.502Z,6.40
2017-12-04T07:39:46.038Z,7.10
2017-12-04T07:42:13.583Z,3.30
2017-12-04T07:44:41.920Z,3.80
2017-12-04T07:47:09.461Z,3.70
2017-12-04T07:49:37.763Z,5.13
2017-12-04T07:52:05.308Z,4.63
2017-12-04T07:54:32.842Z,4.77
2017-12-04T07:57:00.409Z,6.63
2017-12-04T07:59:27.953Z,4.80
2017-12-04T08:01:56.259Z,4.83
2017-12-04T08:04:23.867Z,4.60
2017-12-04T08:06:51.376Z,7.90
2017-12-04T08:09:18.939Z,5.37
2017-12-04T08:11:46.471Z,3.80
2017-12-04T08:14:14.020Z,3.73
2017-12-04T08:16:41.554Z,3.77
2017-12-04T08:19:09.113Z,4.03
2017-12-04T08:21:36.696Z,5.27
2017-12-04T08:24:05.004Z,3.63
2017-12-04T08:26:32.541Z,3.50
2017-12-04T08:29:00.840Z,3.20
2017-12-04T08:31:28.391Z,4.17
2017-12-04T08:33:55.960Z,3.80
2017-12-04T08:36:23.491Z,3.03
2017-12-04T08:38:51.022Z,6.90
2017-12-04T08:41:18.558Z,5.73
2017-12-04T08:43:46.103Z,4.03
2017-12-04T08:46:13.632Z,3.00
2017-12-04T08:48:41.934Z,2.77
2017-12-04T08:51:09.506Z,4.50
2017-12-04T08:53:37.068Z,4.57
2017-12-04T08:56:04.603Z,6.00
2017-12-04T08:58:32.144Z,3.57
2017-12-04T09:00:59.684Z,4.80
2017-12-04T09:03:27.268Z,2.83
2017-12-04T09:05:55.570Z,3.70
2017-12-04T09:08:23.108Z,3.20
2017-12-04T09:10:50.652Z,3.40
2017-12-04T09:13:18.179Z,4.00
2017-12-04T09:15:45.752Z,5.83
2017-12-04T09:18:13.284Z,4.07
2017-12-04T09:20:40.822Z,2.73
2017-12-04T09:23:08.364Z,2.23
2017-12-04T09:25:36.675Z,3.03
2017-12-04T09:28:04.214Z,3.30
2017-12-04T09:30:31.747Z,2.90
2017-12-04T09:32:59.316Z,3.30
2017-12-04T09:35:27.618Z,5.10
2017-12-04T09:37:55.155Z,2.60
2017-12-04T09:40:23.460Z,2.43
2017-12-04T09:42:50.992Z,2.93
2017-12-04T09:45:19.337Z,2.57
2017-12-04T09:47:46.884Z,2.60
2017-12-04T09:50:14.442Z,2.50
2017-12-04T09:52:42.018Z,2.50
2017-12-04T09:55:09.557Z,2.50
2017-12-04T09:57:37.118Z,3.07
2017-12-04T10:00:04.652Z,4.00
2017-12-04T10:02:32.222Z,2.83
2017-12-04T10:04:59.751Z,2.43
2017-12-04T10:07:27.283Z,2.17
2017-12-04T10:09:54.828Z,2.33
2017-12-04T10:12:22.354Z,3.67
2017-12-04T10:14:49.883Z,3.40
2017-12-04T10:17:18.191Z,2.97
2017-12-04T10:19:45.764Z,2.27
2017-12-04T10:22:13.302Z,3.27
2017-12-04T10:24:40.849Z,2.53
2017-12-04T10:27:09.159Z,2.40
2017-12-04T10:29:36.699Z,2.27
2017-12-04T10:32:04.236Z,2.63
2017-12-04T10:34:32.539Z,1.77
2017-12-04T10:37:00.102Z,2.53
2017-12-04T10:39:27.644Z,2.97
2017-12-04T10:41:55.214Z,1.80
2017-12-04T10:44:22.768Z,2.57
2017-12-04T10:46:51.069Z,2.73
2017-12-04T10:49:18.639Z,2.03
2017-12-04T10:51:46.175Z,2.83
2017-12-04T10:54:13.733Z,3.23
2017-12-04T10:56:41.301Z,2.33
2017-12-04T10:59:08.850Z,2.13
2017-12-04T11:01:36.467Z,3.57
2017-12-04T11:04:04.027Z,2.03
2017-12-04T11:06:31.561Z,2.33
2017-12-04T11:08:59.115Z,2.23
2017-12-04T11:11:26.650Z,3.97
2017-12-04T11:13:55.028Z,3.57
2017-12-04T11:16:23.331Z,2.50
2017-12-04T11:18:50.877Z,1.97
2017-12-04T11:21:18.442Z,3.20
2017-12-04T11:23:45.984Z,4.53
2017-12-04T11:26:13.555Z,2.07
2017-12-04T11:28:41.353Z,1.90
2017-12-04T11:31:27.094Z,2.93
2017-12-04T11:33:55.170Z,2.00
2017-12-04T11:36:22.741Z,3.20
2017-12-04T11:38:50.314Z,2.00
2017-12-04T11:41:19.240Z,2.50
2017-12-04T11:43:47.451Z,3.77
2017-12-04T11:46:15.072Z,2.53
2017-12-04T11:48:42.640Z,2.00
2017-12-04T11:51:10.195Z,2.53
2017-12-04T11:53:37.743Z,3.00
2017-12-04T11:56:05.383Z,2.90
2017-12-04T11:58:32.970Z,7.50
2017-12-04T12:01:00.543Z,4.47
2017-12-04T12:03:28.082Z,6.00
2017-12-04T12:05:55.611Z,2.27
2017-12-04T12:08:23.153Z,2.60
2017-12-04T12:10:51.463Z,2.50
2017-12-04T12:13:19.082Z,2.87
2017-12-04T12:15:47.400Z,3.70
2017-12-04T12:18:14.946Z,2.30
2017-12-04T12:20:42.484Z,4.53
2017-12-04T12:23:10.023Z,4.10
2017-12-04T12:25:37.595Z,2.80
2017-12-04T12:28:05.140Z,16.93
2017-12-04T12:30:32.679Z,5.30
2017-12-04T12:33:00.238Z,3.43
2017-12-04T12:35:27.822Z,4.33
2017-12-04T12:37:55.410Z,3.30
2017-12-04T12:40:22.959Z,2.90
2017-12-04T12:42:51.282Z,3.20
2017-12-04T12:45:18.809Z,7.50
2017-12-04T12:47:47.104Z,4.43
2017-12-04T12:50:14.659Z,3.03
2017-12-04T12:52:42.195Z,2.00
2017-12-04T12:55:10.527Z,2.60
2017-12-04T12:57:39.372Z,2.37
2017-12-04T13:00:07.751Z,2.63
2017-12-04T13:02:36.053Z,2.67
2017-12-04T13:05:03.594Z,2.80
2017-12-04T13:07:33.208Z,3.20
2017-12-04T13:10:01.514Z,2.80
2017-12-04T13:12:29.071Z,4.30
2017-12-04T13:14:56.612Z,2.87
2017-12-04T13:17:24.148Z,3.43
2017-12-04T13:19:52.479Z,4.67
2017-12-04T13:22:20.011Z,6.10
2017-12-04T13:24:47.590Z,3.50
2017-12-04T13:27:15.887Z,3.00
2017-12-04T13:29:43.441Z,3.40
2017-12-04T13:32:22.881Z,5.37
2017-12-04T13:35:02.065Z,5.53
2017-12-04T13:37:30.367Z,2.30
2017-12-04T13:39:57.915Z,2.33
2017-12-04T13:42:25.495Z,3.97
2017-12-04T13:44:53.083Z,4.77
2017-12-04T13:47:20.663Z,4.67
2017-12-04T13:49:49.089Z,3.80
2017-12-04T13:52:16.661Z,4.10
2017-12-04T13:54:44.843Z,3.43
2017-12-04T13:57:12.388Z,2.70
2017-12-04T13:59:39.966Z,6.43
2017-12-04T14:02:07.506Z,4.00
2017-12-04T14:04:35.155Z,3.63
2017-12-04T14:07:02.737Z,8.60
2017-12-04T14:09:30.291Z,3.70
2017-12-04T14:11:57.867Z,2.93
2017-12-04T14:14:25.394Z,4.90
2017-12-04T14:16:52.963Z,2.70
2017-12-04T14:19:20.521Z,4.33
2017-12-04T14:21:48.079Z,5.97
2017-12-04T14:24:15.619Z,4.93
2017-12-04T14:26:43.168Z,8.83
2017-12-04T14:29:11.508Z,9.90
2017-12-04T14:31:39.076Z,3.63
2017-12-04T14:34:06.615Z,3.17
2017-12-04T14:36:34.162Z,3.00
2017-12-04T14:39:01.733Z,3.67
2017-12-04T14:41:29.306Z,7.13
2017-12-04T14:43:56.835Z,3.40
2017-12-04T14:46:24.377Z,2.30
2017-12-04T14:48:52.695Z,4.57
2017-12-04T14:51:20.284Z,2.47
2017-12-04T14:53:47.867Z,4.83
2017-12-04T14:56:16.179Z,7.00
2017-12-04T14:58:43.768Z,2.67
2017-12-04T15:01:11.308Z,3.90
2017-12-04T15:03:38.852Z,3.80
2017-12-04T15:06:06.395Z,3.70
2017-12-04T15:08:33.939Z,3.97
2017-12-04T15:11:01.515Z,2.90
2017-12-04T15:13:29.823Z,2.10
2017-12-04T15:15:57.376Z,4.93
2017-12-04T15:18:24.950Z,2.50
2017-12-04T15:20:52.511Z,2.13
2017-12-04T15:23:20.096Z,3.27
2017-12-04T15:25:47.652Z,2.07
2017-12-04T15:28:15.179Z,2.00
2017-12-04T15:30:42.727Z,2.27
2017-12-04T15:33:10.270Z,2.57
2017-12-04T15:35:38.599Z,2.57
2017-12-04T15:38:06.130Z,2.30
2017-12-04T15:40:33.659Z,2.60
2017-12-04T15:43:01.963Z,3.70
2017-12-04T15:45:29.513Z,4.20
2017-12-04T15:47:57.104Z,3.47
2017-12-04T15:50:24.663Z,2.00
2017-12-04T15:52:52.196Z,5.70
2017-12-04T15:55:19.731Z,1.93
2017-12-04T15:57:47.261Z,1.40
2017-12-04T16:00:14.878Z,1.93
2017-12-04T16:02:42.428Z,5.27
2017-12-04T16:05:09.975Z,3.73
2017-12-04T16:07:38.383Z,2.33
2017-12-04T16:10:05.958Z,4.30
2017-12-04T16:12:33.497Z,2.33
2017-12-04T16:15:01.044Z,4.53
2017-12-04T16:17:28.582Z,2.20
2017-12-04T16:19:56.124Z,5.80
2017-12-04T16:22:23.678Z,2.73
2017-12-04T16:24:51.232Z,2.47
2017-12-04T16:27:18.772Z,3.27
2017-12-04T16:29:50.170Z,2.57
2017-12-04T16:32:18.356Z,2.13
2017-12-04T16:34:46.660Z,2.97
2017-12-04T16:37:14.407Z,3.43
2017-12-04T16:39:42.700Z,1.40
2017-12-04T16:42:10.252Z,3.40
2017-12-04T16:44:38.547Z,2.90
2017-12-04T16:47:06.918Z,4.33
2017-12-04T16:49:34.525Z,2.30
2017-12-04T16:52:02.154Z,1.70
2017-12-04T16:54:29.700Z,2.60
2017-12-04T16:56:57.223Z,3.27
2017-12-04T16:59:25.612Z,2.07
2017-12-04T17:01:53.205Z,1.80
2017-12-04T17:04:21.628Z,2.37
2017-12-04T17:06:49.157Z,2.13
2017-12-04T17:09:16.712Z,1.87
2017-12-04T17:11:44.260Z,3.50
2017-12-04T17:14:16.336Z,2.43
2017-12-04T17:16:43.875Z,2.33
2017-12-04T17:19:12.326Z,2.37
2017-12-04T17:21:39.886Z,2.50
2017-12-04T17:24:07.482Z,1.50
2017-12-04T17:26:41.678Z,1.73
2017-12-04T17:29:10.023Z,1.20
2017-12-04T17:31:37.594Z,1.50
2017-12-04T17:34:05.138Z,2.17
2017-12-04T17:36:32.714Z,2.07
2017-12-04T17:39:00.286Z,2.50
2017-12-04T17:41:27.857Z,1.30
2017-12-04T17:43:56.187Z,1.63
2017-12-04T17:46:48.023Z,2.07
2017-12-04T17:49:15.560Z,2.97
2017-12-04T17:51:43.133Z,5.13
2017-12-04T17:54:10.715Z,2.00
2017-12-04T17:56:38.260Z,2.87
2017-12-04T17:59:06.576Z,1.87
2017-12-04T18:01:34.931Z,2.50
2017-12-04T18:04:02.500Z,1.27
2017-12-04T18:06:30.078Z,1.67
2017-12-04T18:08:57.611Z,1.23
2017-12-04T18:11:25.151Z,1.60
2017-12-04T18:13:52.689Z,1.50
2017-12-04T18:16:20.250Z,3.23
2017-12-04T18:18:47.792Z,2.13
2017-12-04T18:21:16.100Z,1.27
2017-12-04T18:23:43.642Z,1.60
2017-12-04T18:26:11.197Z,1.60
2017-12-04T18:28:39.566Z,1.83
2017-12-04T18:31:07.867Z,2.10
2017-12-04T18:33:35.412Z,2.77
2017-12-04T18:36:02.963Z,1.90
2017-12-04T18:38:30.503Z,1.37
2017-12-04T18:40:58.117Z,2.30
2017-12-04T18:43:25.652Z,2.67
2017-12-04T18:45:56.003Z,1.67
2017-12-04T18:48:23.568Z,2.23
2017-12-04T18:50:51.128Z,2.60
2017-12-04T18:53:18.693Z,2.40
2017-12-04T18:55:46.271Z,3.63
2017-12-04T18:58:13.829Z,4.97
2017-12-04T19:00:42.355Z,2.70
2017-12-04T19:03:10.663Z,2.13
2017-12-04T19:05:38.254Z,2.13
2017-12-04T19:08:05.811Z,2.90
2017-12-04T19:10:33.362Z,2.60
2017-12-04T19:13:05.316Z,1.47
2017-12-04T19:18:25.599Z,2.63
2017-12-04T19:20:53.927Z,3.80
2017-12-04T19:23:21.691Z,3.57
2017-12-04T19:25:54.739Z,2.80
2017-12-04T19:28:22.310Z,2.80
2017-12-04T19:30:49.847Z,1.20
2017-12-04T19:33:18.153Z,1.80
2017-12-04T19:35:45.701Z,1.70
2017-12-04T19:38:13.234Z,1.93
2017-12-04T19:40:44.817Z,3.70
2017-12-04T19:43:12.396Z,2.10
2017-12-04T19:45:49.837Z,2.10
2017-12-04T19:48:35.083Z,1.60
2017-12-04T19:51:02.642Z,5.87
2017-12-04T19:53:30.180Z,2.70
2017-12-04T19:55:57.718Z,4.47
2017-12-04T19:58:25.746Z,2.70
2017-12-04T20:00:57.169Z,2.50
2017-12-04T20:03:24.737Z,3.73
2017-12-04T20:06:05.598Z,3.07
2017-12-04T20:08:33.172Z,2.70
2017-12-04T20:11:00.704Z,2.70
2017-12-04T20:13:29.123Z,2.27
2017-12-04T20:15:56.657Z,3.63
2017-12-04T20:18:24.200Z,1.60
2017-12-04T20:20:51.755Z,4.63
2017-12-04T20:23:19.295Z,2.30
2017-12-04T20:25:47.636Z,3.30
2017-12-04T20:28:15.186Z,1.87
2017-12-04T20:30:42.729Z,2.00
2017-12-04T20:33:10.259Z,2.77
2017-12-04T20:35:37.807Z,2.20
2017-12-04T20:38:05.388Z,2.40
2017-12-04T20:40:32.982Z,1.90
2017-12-04T20:43:01.923Z,2.40
2017-12-04T20:45:29.471Z,1.70
2017-12-04T20:47:57.782Z,1.87
2017-12-04T20:50:28.058Z,1.83
2017-12-04T20:52:55.592Z,3.13
2017-12-04T20:55:25.105Z,2.70
2017-12-04T20:57:52.636Z,2.17
2017-12-04T21:00:20.175Z,2.07
2017-12-04T21:02:48.482Z,2.27
2017-12-04T21:05:16.038Z,1.90
2017-12-04T21:07:50.321Z,3.23
2017-12-04T21:10:30.366Z,1.67
2017-12-04T21:13:10.738Z,2.30
2017-12-04T21:18:38.861Z,2.17
2017-12-04T21:21:06.394Z,3.00
2017-12-04T21:23:34.703Z,2.90
2017-12-04T21:26:03.027Z,2.17
2017-12-04T21:28:30.564Z,5.10
2017-12-04T21:30:58.125Z,2.20
2017-12-04T21:33:25.665Z,2.43
2017-12-04T21:35:53.206Z,2.47
2017-12-04T21:38:20.779Z,2.17
2017-12-04T21:40:48.316Z,2.70
2017-12-04T21:43:15.871Z,4.87
2017-12-04T21:45:43.406Z,2.93
2017-12-04T21:48:10.935Z,2.27
2017-12-04T21:50:38.478Z,3.60
2017-12-04T21:53:06.010Z,1.97
2017-12-04T21:55:34.323Z,2.60
2017-12-04T21:58:01.880Z,2.10
2017-12-04T22:00:29.467Z,2.30
2017-12-04T22:02:57.032Z,1.83
2017-12-04T22:05:24.568Z,3.93
2017-12-04T22:07:52.099Z,2.13
2017-12-04T22:10:19.631Z,1.77
2017-12-04T22:12:48.018Z,3.27
2017-12-04T22:15:16.316Z,2.87
2017-12-04T22:17:43.856Z,2.40
2017-12-04T22:20:12.159Z,1.97
2017-12-04T22:22:39.692Z,2.20
2017-12-04T22:25:08.012Z,3.30
2017-12-04T22:27:35.563Z,2.27
2017-12-04T22:30:03.120Z,2.50
2017-12-04T22:32:30.650Z,4.77
2017-12-04T22:34:58.947Z,2.20
2017-12-04T22:37:26.474Z,2.30
2017-12-04T22:39:54.788Z,2.97
2017-12-04T22:42:22.356Z,2.20
2017-12-04T22:44:49.900Z,2.93
2017-12-04T22:47:17.435Z,2.20
2017-12-04T22:49:45.745Z,2.57
2017-12-04T22:52:13.280Z,2.60
2017-12-04T22:54:41.607Z,3.10
2017-12-04T22:57:09.131Z,1.97
2017-12-04T22:59:36.693Z,3.70
2017-12-04T23:02:04.243Z,2.40
2017-12-04T23:04:32.539Z,2.53
2017-12-04T23:07:00.087Z,2.83
2017-12-04T23:09:27.618Z,2.13
2017-12-04T23:11:55.187Z,3.67
2017-12-04T23:14:23.498Z,2.37
2017-12-04T23:16:51.047Z,1.90
2017-12-04T23:19:18.594Z,2.40
2017-12-04T23:21:46.905Z,3.37
2017-12-04T23:24:14.467Z,2.17
2017-12-04T23:26:42.027Z,2.13
2017-12-04T23:29:09.560Z,1.70
2017-12-04T23:31:37.860Z,2.20
2017-12-04T23:34:05.406Z,2.37
2017-12-04T23:36:32.976Z,2.30
2017-12-04T23:39:00.507Z,2.53
2017-12-04T23:41:28.809Z,2.60
2017-12-04T23:43:56.342Z,2.00
2017-12-04T23:46:24.640Z,2.10
2017-12-04T23:48:52.204Z,2.37
2017-12-04T23:51:19.740Z,2.43
2017-12-04T23:53:48.048Z,3.67
2017-12-04T23:56:15.581Z,2.07
2017-12-04T23:58:43.874Z,3.77
